Felker Army Air Field
KFAF : now visible

Airfield :











YOU CAN JOIN US ON...

 
LOGIN :

Register | Disclaimer

   EN    FR    IT 

 









Legend :    VFR   Marginal VFR   IFR   Intensive IFR   Very Intensive IFR
Visi :
Ceiling :
>= 8 km
>= 3000ft
5 to 8 km
1000 to 3000 ft
1500m to 5 km
500 to 1000 ft
800 to 1500m
200 to 500 ft
< 800m
< 200 ft
Symbols :   Thunderstorms  Fog  Heavy snow  Heavy precipitations  Wind > 20 kt






- Airport Elevation : 12 ft


KFAF - Felker Army Air Field

CURRENT METAR :
  • 200255Z AUTO 00000KT 10SM OVC006 12/11 A3001 RMK AO2 SLP166 60002 T01230109 50005 $

EXPIRED METARs :
  • 200225Z AUTO 00000KT 10SM OVC007 12/11 A3000 RMK AO2 SLP162 $
  • 200155Z AUTO 00000KT 10SM OVC008 12/11 A3002 RMK AO2 RAE12 SLP169 P0002 T01220108 $
  • 200112Z AUTO 00000KT 10SM BKN008 BKN013 12/11 A3003 RMK AO2 RAE12 SLP173 TSNO $
  • 200055Z AUTO 00000KT 10SM -RA OVC009 12/10 A3002 RMK AO2 RAB26E37RAB50 SLP169 P0000 T01230104 TSNO $
  • 200037Z AUTO 00000KT 10SM OVC009 13/11 A3002 RMK AO2 RAB26E37 SLP169 $
  • 200010Z AUTO 00000KT 10SM BKN009 13/10 A3000 RMK AO2 BKN V SCT SLP162 $
  • 192355Z AUTO 00000KT 10SM FEW010 SCT095 13/11 A3000 RMK AO2 RAE20DZB26E27 SLP162 P0000 60000 T01260105 10164 20125 58003 $
  • 192327Z AUTO 00000KT 10SM FEW095 13/11 A3000 RMK AO2 RAE20DZB26E27 SLP162 $
  • 192320Z AUTO 00000KT 10SM CLR 13/11 A3000 RMK AO2 RAE20 SLP162 TSNO $

TAF TAF KFAF
Valid from the 20 at 02:00 until the 21 at 08:00 UTC


200200Z 2002/2108 VRB06KT 9000 -SHRA BKN008 QNH3000INS
BECMG 2004/2005 VRB06KT 9000 BR SCT009 BKN010 OVC020 QNH2994INS
BECMG 2010/2011 VRB06KT 8000 SHRA OVC009 QNH2993INS
BECMG 2014/2015 VRB06KT 9999 NSW OVC008 QNH2996INS
BECMG 2017/2018 01012KT 9999 OVC010 QNH2996INS
BECMG 2022/2023 VRB06KT 9999 SCT030 BKN045 QNH2993INS
BECMG 2023/2024 VRB06KT 9999 FEW030 QNH2993INS TX17/2022Z TN10/2008Z LAST NO AFT 2003 NEXT 2210
KZDC FIR / North America



MET'MAP, your aeronautical weather chart ! - Copyright ORBIFLY December 2007 - Disclaimer

ORBIFLY MET'MAP TEAM :

Programming & Development : Alexandra Zaïnal
Original concept : Baudouin d'Aumeries
Technical & hardware support : Manuel Goepfert
Assistance : Marc-Olivier Méhu




SOURCES & CREDITS :

   NOAA       Earth
Advisory